Airport View

Enter AWOS ICAO identifier for current METAR.

KFNL for example

KAEJ 261840Z AUTO 34011G19KT 10SM BKN080 12/M10 A2989 RMK AO2 T01181102

26 Mar 2017 18:35

Frequency: 132.925

Phone: 719-395-2599

Other Area AWOS: K7BM - KANK - KMYP - KLXV

TAF AMD KASE 261806Z 2618/2718 00000KT P6SM SCT025 BKN030 FM261900 30004KT P6SM BKN035 OVC050 FM270200 20004KT P6SM FEW060 SCT090